Cold Bay, AK

12:54 PM AKDT on August 21, 2014 (GMT -0800)
Sand Point | Change Station
CLOSE
Current Station
Airport
Location: Sand Point,
Elevation: 23 ft
Nearby Weather Stations

Elev 23 ft 55.31 °N, 160.52 °W | Updated 18 minutes ago

Mostly Cloudy
Mostly Cloudy
63 °F
Feels Like 63 °F
N
8
Wind Variable Wind from SE

Today
High -- | Low -- °F
--% Chance of Precip.
Yesterday
High -- | Low -- °F
Precip. -- in
7:36 AM 10:09 PM
Waning Crescent, 12% visible
Pressure 30.15 in
Visibility 10.0 miles
Clouds Scattered Clouds 2300 ft
Mostly Cloudy 4000 ft
Dew Point 54 °F
Humidity 72%
Rainfall 0.00 in
Snow Depth Not available.
UV 3 out of 12
Pollen Not available.
Air Quality Not available.
Flu Activity Not available.
METAR PASD 212036Z 14007KT 10SM SCT023 BKN040 17/12 A3015 RMK AO1 WEA: NONE (DA)

More Conditions Fewer Conditions

Pressure 30.15 in
Visibility 10.0 miles
Clouds Scattered Clouds 2300 ft
Mostly Cloudy 4000 ft
Dew Point 54 °F
Humidity 72%
Rainfall 0.00 in
Snow Depth Not available.
UV 3 out of 12
Pollen Not available.
Air Quality Not available.
Flu Activity Not available.
METAR PASD 212036Z 14007KT 10SM SCT023 BKN040 17/12 A3015 RMK AO1 WEA: NONE (DA)

More Conditions Fewer Conditions

10-Day Weather Forecast

Almanac

Astronomy

Aug. 21, 2014 Rise Set
Actual Time 7:36 AM AKDT 10:09 PM AKDT
Civil Twilight 6:55 AM AKDT 10:50 PM AKDT
Nautical Twilight 6:03 AM AKDT 11:42 PM AKDT
Astronomical Twilight 4:56 AM AKDT 12:47 AM AKDT
Moon 4:00 AM AKDT 8:00 PM AKDT
Length of Visible Light 15h 54m
Length of Day
14h 33m
Tomorrow will be 4m 17s shorter.
Waning Crescent, 12% of the Moon is Illuminated
Today
Waning Crescent
Aug 25
New
Sep 2
First Quarter
Sep 8
Full
Sep 15
Last Quarter

Today's Extremes

State Highs State Lows

Community

WunderPhotos

Upload Photos

1,746,017 photos uploaded!

WunderBlogs® & News

Nearby

Snow Depth

Station Depth Elevation
Port Graham 0 in 300 ft
Mcneil Canyon 1 in 1320 ft
MF Bradley River 3 in 2300 ft
Cooper Lake 35 in 1200 ft
Grouse Creek Divide 0 in 700 ft

Earthquake Activity

City Distance Mag. Time & Date
No recent earthquake activity has been reported nearby.
Minimum magnitude displayed is 2.5.

Coastal Water Temperatures

Place Temperature
No Stations Reporting

Nearby Weather Stations